createdAt,value
2023-01-12T00:01:38.187Z,7.70
2023-01-12T00:04:06.453Z,8.33
2023-01-12T00:06:35.599Z,7.45
2023-01-12T00:09:06.395Z,10.02
2023-01-12T00:11:34.397Z,6.20
2023-01-12T00:14:02.294Z,5.80
2023-01-12T00:16:37.409Z,7.32
2023-01-12T00:19:10.835Z,5.45
2023-01-12T00:21:56.375Z,7.63
2023-01-12T00:24:25.637Z,7.25
2023-01-12T00:26:53.807Z,4.20
2023-01-12T00:29:22.061Z,4.88
2023-01-12T00:31:49.944Z,5.10
2023-01-12T00:34:17.962Z,3.50
2023-01-12T00:36:47.977Z,3.90
2023-01-12T00:39:16.859Z,4.53
2023-01-12T00:42:02.171Z,3.80
2023-01-12T00:44:47.324Z,5.45
2023-01-12T00:47:15.699Z,3.35
2023-01-12T00:49:43.781Z,4.00
2023-01-12T00:52:21.630Z,5.55
2023-01-12T00:54:57.553Z,3.88
2023-01-12T00:57:25.375Z,5.03
2023-01-12T00:59:55.172Z,4.75
2023-01-12T01:02:23.474Z,3.30
2023-01-12T01:04:51.349Z,4.00
2023-01-12T01:07:21.487Z,3.05
2023-01-12T01:09:49.297Z,4.37
2023-01-12T01:12:17.041Z,5.35
2023-01-12T01:14:44.802Z,5.05
2023-01-12T01:17:12.476Z,6.00
2023-01-12T01:19:40.175Z,5.80
2023-01-12T01:22:07.905Z,4.47
2023-01-12T01:24:36.963Z,9.25
2023-01-12T01:27:04.755Z,5.72
2023-01-12T01:29:32.391Z,7.10
2023-01-12T01:32:00.022Z,7.87
2023-01-12T01:34:27.749Z,7.55
2023-01-12T01:36:55.482Z,8.18
2023-01-12T01:39:23.231Z,9.48
2023-01-12T01:41:52.665Z,8.88
2023-01-12T01:44:52.250Z,8.85
2023-01-12T01:47:26.972Z,12.95
2023-01-12T01:49:55.991Z,13.18
2023-01-12T01:52:27.117Z,11.77
2023-01-12T01:54:56.582Z,11.98
2023-01-12T01:57:27.881Z,11.25
2023-01-12T01:59:56.866Z,13.65
2023-01-12T02:02:26.294Z,11.63
2023-01-12T02:04:54.295Z,13.02
2023-01-12T02:07:22.076Z,12.65
2023-01-12T02:09:49.774Z,15.45
2023-01-12T02:12:35.003Z,15.23
2023-01-12T02:15:21.650Z,13.90
2023-01-12T02:17:57.976Z,13.63
2023-01-12T02:21:01.443Z,11.63
2023-01-12T02:23:51.031Z,11.60
2023-01-12T02:26:44.870Z,13.00
2023-01-12T02:29:45.142Z,13.80
2023-01-12T02:32:21.088Z,11.77
2023-01-12T02:34:55.328Z,13.25
2023-01-12T02:37:29.870Z,13.73
2023-01-12T02:40:00.811Z,12.47
2023-01-12T02:42:44.059Z,12.15
2023-01-12T02:45:25.564Z,12.13
2023-01-12T02:47:57.965Z,15.20
2023-01-12T02:50:30.933Z,10.50
2023-01-12T02:53:04.216Z,9.65
2023-01-12T02:55:32.367Z,9.48
2023-01-12T02:58:01.313Z,12.50
2023-01-12T03:00:29.570Z,10.45
2023-01-12T03:02:58.703Z,7.97
2023-01-12T03:05:26.369Z,9.23
2023-01-12T03:07:55.576Z,11.88
2023-01-12T03:10:41.570Z,8.75
2023-01-12T03:13:11.679Z,10.35
2023-01-12T03:15:41.780Z,7.10
2023-01-12T03:18:16.046Z,8.18
2023-01-12T03:20:48.463Z,9.07
2023-01-12T03:23:19.934Z,7.32
2023-01-12T03:25:48.253Z,7.35
2023-01-12T03:28:18.312Z,6.93
2023-01-12T03:30:48.039Z,6.57
2023-01-12T03:33:17.216Z,7.68
2023-01-12T03:35:51.714Z,6.30
2023-01-12T03:38:23.310Z,7.55
2023-01-12T03:40:54.176Z,5.95
2023-01-12T03:43:25.390Z,5.20
2023-01-12T03:45:58.659Z,4.93
2023-01-12T03:48:31.865Z,4.45
2023-01-12T03:51:01.863Z,8.07
2023-01-12T03:53:30.868Z,5.35
2023-01-12T03:56:02.005Z,5.88
2023-01-12T03:58:29.742Z,6.95
2023-01-12T04:00:57.544Z,6.50
2023-01-12T04:03:25.287Z,7.07
2023-01-12T04:05:54.552Z,7.97
2023-01-12T04:08:22.255Z,8.60
2023-01-12T04:10:49.987Z,5.77
2023-01-12T04:13:17.662Z,8.25
2023-01-12T04:15:45.441Z,10.25
2023-01-12T04:18:13.820Z,8.57
2023-01-12T04:20:41.710Z,7.90
2023-01-12T04:23:09.770Z,7.23
2023-01-12T04:25:37.672Z,6.20
2023-01-12T04:28:05.633Z,6.05
2023-01-12T04:30:34.500Z,8.75
2023-01-12T04:33:08.031Z,9.13
2023-01-12T04:35:35.825Z,7.47
2023-01-12T04:38:06.877Z,10.90
2023-01-12T04:40:36.031Z,11.32
2023-01-12T04:43:07.308Z,13.20
2023-01-12T04:45:37.397Z,11.13
2023-01-12T04:48:06.365Z,8.00
2023-01-12T04:50:34.146Z,10.32
2023-01-12T04:53:03.397Z,7.07
2023-01-12T04:55:31.330Z,6.68
2023-01-12T04:58:00.338Z,7.22
2023-01-12T05:00:28.565Z,6.22
2023-01-12T05:02:59.217Z,7.40
2023-01-12T05:05:26.954Z,7.13
2023-01-12T05:08:11.543Z,5.72
2023-01-12T05:10:39.265Z,4.53
2023-01-12T05:13:08.273Z,4.85
2023-01-12T05:15:35.942Z,5.22
2023-01-12T05:18:03.563Z,3.30
2023-01-12T05:20:31.176Z,5.35
2023-01-12T05:22:58.818Z,5.50
2023-01-12T05:25:26.801Z,5.13
2023-01-12T05:27:55.912Z,4.63
2023-01-12T05:30:25.108Z,6.50
2023-01-12T05:32:53.008Z,7.97
2023-01-12T05:35:20.790Z,9.23
2023-01-12T05:37:48.511Z,6.22
2023-01-12T05:40:16.619Z,5.65
2023-01-12T05:43:01.931Z,8.00
2023-01-12T05:45:30.953Z,6.60
2023-01-12T05:47:59.378Z,6.93
2023-01-12T05:50:27.333Z,6.45
2023-01-12T05:52:55.720Z,5.40
2023-01-12T05:55:23.429Z,6.10
2023-01-12T05:57:51.197Z,6.15
2023-01-12T06:00:19.934Z,5.05
2023-01-12T06:02:49.107Z,4.73
2023-01-12T06:05:17.044Z,5.27
2023-01-12T06:07:44.749Z,4.90
2023-01-12T06:10:13.185Z,5.45
2023-01-12T06:12:57.429Z,5.38
2023-01-12T06:15:25.121Z,5.30
2023-01-12T06:17:54.203Z,4.78
2023-01-12T06:20:21.919Z,9.73
2023-01-12T06:22:49.617Z,4.15
2023-01-12T06:25:17.529Z,5.85
2023-01-12T06:27:45.324Z,4.47
2023-01-12T06:30:13.835Z,4.13
2023-01-12T06:32:41.880Z,4.97
2023-01-12T06:35:19.119Z,4.07
2023-01-12T06:37:47.835Z,5.05
2023-01-12T06:40:15.776Z,4.45
2023-01-12T06:42:43.526Z,4.85
2023-01-12T06:45:12.360Z,4.80
2023-01-12T06:47:46.022Z,5.60
2023-01-12T06:50:15.248Z,3.75
2023-01-12T06:52:43.027Z,4.47
2023-01-12T06:55:11.037Z,3.90
2023-01-12T06:57:38.701Z,5.43
2023-01-12T07:00:07.918Z,7.65
2023-01-12T07:02:35.667Z,5.25
2023-01-12T07:05:03.365Z,5.65
2023-01-12T07:07:32.566Z,4.18
2023-01-12T07:10:00.219Z,3.22
2023-01-12T07:12:27.837Z,2.10
2023-01-12T07:14:56.201Z,3.33
2023-01-12T07:17:23.884Z,4.28
2023-01-12T07:19:51.672Z,3.67
2023-01-12T07:22:19.374Z,3.53
2023-01-12T07:24:48.554Z,2.90
2023-01-12T07:27:16.253Z,1.63
2023-01-12T07:29:43.976Z,2.20
2023-01-12T07:32:11.721Z,3.87
2023-01-12T07:34:39.362Z,4.57
2023-01-12T07:37:07.683Z,2.92
2023-01-12T07:39:35.353Z,2.75
2023-01-12T07:42:21.731Z,2.80
2023-01-12T07:44:49.447Z,2.08
2023-01-12T07:47:17.159Z,3.03
2023-01-12T07:49:44.888Z,2.58
2023-01-12T07:52:12.938Z,2.30
2023-01-12T07:54:40.851Z,1.60
2023-01-12T07:57:10.640Z,2.25
2023-01-12T07:59:38.447Z,3.88
2023-01-12T08:02:06.794Z,3.58
2023-01-12T08:04:34.613Z,2.13
2023-01-12T08:07:02.359Z,2.28
2023-01-12T08:09:30.344Z,2.90
2023-01-12T08:11:58.052Z,2.78
2023-01-12T08:14:30.380Z,3.63
2023-01-12T08:17:01.644Z,1.95
2023-01-12T08:19:32.933Z,2.50
2023-01-12T08:22:03.068Z,1.80
2023-01-12T08:24:34.855Z,3.40
2023-01-12T08:27:04.848Z,1.90
2023-01-12T08:29:39.947Z,2.92
2023-01-12T08:34:37.622Z,2.10
2023-01-12T08:37:07.354Z,3.53
2023-01-12T08:39:35.634Z,2.40
2023-01-12T08:42:03.616Z,1.77
2023-01-12T08:44:33.917Z,2.05
2023-01-12T08:47:04.434Z,2.90
2023-01-12T08:49:33.185Z,2.58
2023-01-12T08:52:01.295Z,1.70
2023-01-12T08:54:29.134Z,2.73
2023-01-12T08:56:56.893Z,1.95
2023-01-12T08:59:25.551Z,1.27
2023-01-12T09:01:53.340Z,1.90
2023-01-12T09:04:22.461Z,1.30
2023-01-12T09:06:50.114Z,1.77
2023-01-12T09:09:19.983Z,1.70
2023-01-12T09:11:48.870Z,2.42
2023-01-12T09:14:17.202Z,2.25
2023-01-12T09:16:45.063Z,4.05
2023-01-12T09:19:12.986Z,1.83
2023-01-12T09:21:43.633Z,3.17
2023-01-12T09:24:11.948Z,2.10
2023-01-12T09:26:40.782Z,3.25
2023-01-12T09:29:08.932Z,1.80
2023-01-12T09:31:37.716Z,2.03
2023-01-12T09:34:05.513Z,2.60
2023-01-12T09:36:34.803Z,2.45
2023-01-12T09:39:04.418Z,3.00
2023-01-12T09:41:51.087Z,1.70
2023-01-12T09:44:38.187Z,1.83
2023-01-12T09:47:09.991Z,2.10
2023-01-12T09:49:40.743Z,1.55
2023-01-12T09:52:14.616Z,1.90
2023-01-12T09:54:43.884Z,1.67
2023-01-12T09:57:28.991Z,2.90
2023-01-12T09:59:59.509Z,1.23
2023-01-12T10:02:27.801Z,2.40
2023-01-12T10:04:57.318Z,1.15
2023-01-12T10:07:25.057Z,1.38
2023-01-12T10:09:54.362Z,1.73
2023-01-12T10:12:27.155Z,2.20
2023-01-12T10:15:09.858Z,1.70
2023-01-12T10:17:51.436Z,1.60
2023-01-12T10:20:24.924Z,1.75
2023-01-12T10:22:54.768Z,2.47
2023-01-12T10:25:32.239Z,2.60
2023-01-12T10:28:01.668Z,1.45
2023-01-12T10:30:31.738Z,1.05
2023-01-12T10:33:00.036Z,1.80
2023-01-12T10:35:27.795Z,1.90
2023-01-12T10:37:56.773Z,1.37
2023-01-12T10:40:29.060Z,1.35
2023-01-12T10:43:23.892Z,1.10
2023-01-12T10:46:13.302Z,1.30
2023-01-12T10:48:43.719Z,0.90
2023-01-12T10:51:24.264Z,1.27
2023-01-12T10:53:54.418Z,0.80
2023-01-12T10:56:29.331Z,1.00
2023-01-12T10:59:00.740Z,1.00
2023-01-12T11:01:44.070Z,0.70
2023-01-12T11:04:15.392Z,1.00
2023-01-12T11:06:44.595Z,0.68
2023-01-12T11:09:20.443Z,0.68
2023-01-12T11:11:54.537Z,0.70
2023-01-12T11:14:27.721Z,0.77
2023-01-12T11:17:00.907Z,1.05
2023-01-12T11:19:30.959Z,0.60
2023-01-12T11:22:05.041Z,0.50
2023-01-12T11:24:37.218Z,0.77
2023-01-12T11:27:14.426Z,0.55
2023-01-12T11:29:46.866Z,0.60
2023-01-12T11:32:19.379Z,1.27
2023-01-12T11:34:55.826Z,2.03
2023-01-12T11:37:24.164Z,0.80
2023-01-12T11:39:54.895Z,0.90
2023-01-12T11:42:44.007Z,1.50
2023-01-12T11:45:15.283Z,0.70
2023-01-12T11:47:48.416Z,0.70
2023-01-12T11:50:18.479Z,0.52
2023-01-12T11:52:46.593Z,1.10
2023-01-12T11:55:16.031Z,0.60
2023-01-12T11:57:52.236Z,2.60
2023-01-12T12:00:30.418Z,1.48
2023-01-12T12:03:10.573Z,1.20
2023-01-12T12:05:43.888Z,4.22
2023-01-12T12:08:21.003Z,3.00
2023-01-12T12:10:53.295Z,2.30
2023-01-12T12:13:29.386Z,1.00
2023-01-12T12:16:14.032Z,1.42
2023-01-12T12:18:52.250Z,1.00
2023-01-12T12:21:34.667Z,7.15
2023-01-12T12:24:10.251Z,8.75
2023-01-12T12:26:40.701Z,6.63
2023-01-12T12:29:25.345Z,1.65
2023-01-12T12:32:05.676Z,5.00
2023-01-12T12:34:51.266Z,2.78
2023-01-12T12:37:22.654Z,1.00
2023-01-12T12:39:57.182Z,1.60
2023-01-12T12:43:00.948Z,1.70
2023-01-12T12:45:38.591Z,2.40
2023-01-12T12:48:11.017Z,2.60
2023-01-12T12:50:42.215Z,2.05
2023-01-12T12:53:16.097Z,0.73
2023-01-12T12:55:44.943Z,1.00
2023-01-12T12:58:28.880Z,0.80
2023-01-12T13:01:45.026Z,1.00
2023-01-12T13:04:14.575Z,0.88
2023-01-12T13:06:47.036Z,0.90
2023-01-12T13:09:37.361Z,2.77
2023-01-12T13:12:23.378Z,4.45
2023-01-12T13:15:23.659Z,1.30
2023-01-12T13:17:53.897Z,1.30
2023-01-12T13:20:43.833Z,1.20
2023-01-12T13:23:43.267Z,1.60
2023-01-12T13:26:37.985Z,2.42
2023-01-12T13:29:40.503Z,2.10
2023-01-12T13:32:44.894Z,2.15
2023-01-12T13:35:57.617Z,3.28
2023-01-12T13:38:38.425Z,1.70
2023-01-12T13:41:17.800Z,0.95
2023-01-12T13:43:51.300Z,1.80
2023-01-12T13:46:21.535Z,6.53
2023-01-12T13:48:51.063Z,1.80
2023-01-12T13:51:22.319Z,1.33
2023-01-12T13:54:00.218Z,0.60
2023-01-12T13:56:28.148Z,0.40
2023-01-12T13:59:01.813Z,0.50
2023-01-12T14:01:33.932Z,1.60
2023-01-12T14:04:20.365Z,2.00
2023-01-12T14:06:58.882Z,2.50
2023-01-12T14:09:35.993Z,1.40
2023-01-12T14:12:25.101Z,0.70
2023-01-12T14:15:30.364Z,0.68
2023-01-12T14:18:04.115Z,1.37
2023-01-12T14:20:32.072Z,3.25
2023-01-12T14:23:17.979Z,0.60
2023-01-12T14:25:47.551Z,0.82
2023-01-12T14:28:18.488Z,1.10
2023-01-12T14:30:48.882Z,1.83
2023-01-12T14:33:21.524Z,3.55
2023-01-12T14:35:52.149Z,2.65
2023-01-12T14:38:21.899Z,1.20
2023-01-12T14:40:54.519Z,1.42
2023-01-12T14:43:39.658Z,1.47
2023-01-12T14:46:25.300Z,1.30
2023-01-12T14:49:01.640Z,1.75
2023-01-12T14:51:33.945Z,1.13
2023-01-12T14:54:15.967Z,0.90
2023-01-12T14:56:50.379Z,1.88
2023-01-12T14:59:22.703Z,1.80
2023-01-12T15:01:51.267Z,2.33
2023-01-12T15:04:21.016Z,1.88
2023-01-12T15:06:49.108Z,3.10
2023-01-12T15:09:29.177Z,3.03
2023-01-12T15:11:58.445Z,1.38
2023-01-12T15:14:29.061Z,1.40
2023-01-12T15:17:14.161Z,1.23
2023-01-12T15:19:59.413Z,1.20
2023-01-12T15:22:46.280Z,1.00
2023-01-12T15:25:33.177Z,0.80
2023-01-12T15:28:02.786Z,0.93
2023-01-12T15:30:31.146Z,0.80
2023-01-12T15:32:58.876Z,0.90
2023-01-12T15:35:28.071Z,1.40
2023-01-12T15:37:57.161Z,1.52
2023-01-12T15:40:27.083Z,1.80
2023-01-12T15:42:55.220Z,1.40
2023-01-12T15:45:30.796Z,2.45
2023-01-12T15:47:58.553Z,1.80
2023-01-12T15:50:26.288Z,1.90
2023-01-12T15:52:54.081Z,1.88
2023-01-12T15:55:23.549Z,3.50
2023-01-12T15:57:52.294Z,1.80
2023-01-12T16:00:22.078Z,4.60
2023-01-12T16:02:52.073Z,4.22
2023-01-12T16:05:21.957Z,1.40
2023-01-12T16:07:49.662Z,2.50
2023-01-12T16:10:18.278Z,2.25
2023-01-12T16:12:47.880Z,1.98
2023-01-12T16:15:17.812Z,0.82
2023-01-12T16:17:45.527Z,1.73
2023-01-12T16:20:16.801Z,1.63
2023-01-12T16:22:45.079Z,1.80
2023-01-12T16:25:12.880Z,1.70
2023-01-12T16:27:41.214Z,0.98
2023-01-12T16:30:11.301Z,1.45
2023-01-12T16:32:39.379Z,1.15
2023-01-12T16:35:07.133Z,1.50
2023-01-12T16:37:36.221Z,1.13
2023-01-12T16:40:05.353Z,1.60
2023-01-12T16:42:33.047Z,1.67
2023-01-12T16:45:00.931Z,1.50
2023-01-12T16:47:28.643Z,2.28
2023-01-12T16:49:56.355Z,2.42
2023-01-12T16:52:24.183Z,9.10
2023-01-12T16:54:53.352Z,7.93
2023-01-12T16:57:21.021Z,22.40
2023-01-12T16:59:49.632Z,9.20
2023-01-12T17:02:19.156Z,8.60
2023-01-12T17:04:49.040Z,5.78
2023-01-12T17:07:16.892Z,5.95
2023-01-12T17:09:44.885Z,4.72
2023-01-12T17:12:14.066Z,7.03
2023-01-12T17:14:41.983Z,7.63
2023-01-12T17:17:11.181Z,3.40
2023-01-12T17:19:42.637Z,4.43
2023-01-12T17:22:11.028Z,4.40
2023-01-12T17:24:40.410Z,2.17
2023-01-12T17:27:09.385Z,2.85
2023-01-12T17:29:38.799Z,3.25
2023-01-12T17:32:08.371Z,2.95
2023-01-12T17:34:37.788Z,3.60
2023-01-12T17:37:08.251Z,4.20
2023-01-12T17:39:36.535Z,7.20
2023-01-12T17:42:24.488Z,6.43
2023-01-12T17:44:53.738Z,10.95
2023-01-12T17:47:21.451Z,7.57
2023-01-12T17:49:49.164Z,23.85
2023-01-12T17:52:18.056Z,9.35
2023-01-12T17:54:45.787Z,19.40
2023-01-12T17:57:13.662Z,19.17
2023-01-12T17:59:41.467Z,15.93
2023-01-12T18:02:11.880Z,18.65
2023-01-12T18:04:39.600Z,17.37
2023-01-12T18:07:07.264Z,6.20
2023-01-12T18:09:36.772Z,10.70
2023-01-12T18:12:05.158Z,4.55
2023-01-12T18:14:33.331Z,9.93
2023-01-12T18:17:01.075Z,2.55
2023-01-12T18:19:30.179Z,2.67
2023-01-12T18:21:57.971Z,1.88
2023-01-12T18:24:25.895Z,1.40
2023-01-12T18:26:53.623Z,2.13
2023-01-12T18:29:21.403Z,1.50
2023-01-12T18:31:49.046Z,1.80
2023-01-12T18:34:18.371Z,3.50
2023-01-12T18:36:47.715Z,2.50
2023-01-12T18:39:17.172Z,1.80
2023-01-12T18:42:02.602Z,3.53
2023-01-12T18:44:31.162Z,3.83
2023-01-12T18:47:16.945Z,4.27
2023-01-12T18:49:45.895Z,2.92
2023-01-12T18:52:48.336Z,2.45
2023-01-12T18:55:16.200Z,2.42
2023-01-12T18:57:43.877Z,1.20
2023-01-12T19:00:16.823Z,0.90
2023-01-12T19:02:44.703Z,1.40
2023-01-12T19:05:19.750Z,1.83
2023-01-12T19:08:04.532Z,2.00
2023-01-12T19:10:34.048Z,1.30
2023-01-12T19:13:19.408Z,1.70
2023-01-12T19:16:04.595Z,2.20
2023-01-12T19:18:32.384Z,3.50
2023-01-12T19:21:29.697Z,3.25
2023-01-12T19:24:16.055Z,7.20
2023-01-12T19:27:01.546Z,4.88
2023-01-12T19:29:29.236Z,4.45
2023-01-12T19:31:56.874Z,4.20
2023-01-12T19:34:25.663Z,6.35
2023-01-12T19:36:53.362Z,4.65
2023-01-12T19:39:34.308Z,5.63
2023-01-12T19:42:19.332Z,6.70
2023-01-12T19:44:47.050Z,5.55
2023-01-12T19:47:14.815Z,6.00
2023-01-12T19:49:42.547Z,7.10
2023-01-12T19:52:11.097Z,6.93
2023-01-12T19:54:40.187Z,7.03
2023-01-12T19:57:07.928Z,6.20
2023-01-12T19:59:35.700Z,7.03
2023-01-12T20:02:03.841Z,6.45
2023-01-12T20:04:31.535Z,5.68
2023-01-12T20:06:59.702Z,6.25
2023-01-12T20:09:27.466Z,6.00
2023-01-12T20:11:56.627Z,5.95
2023-01-12T20:14:24.644Z,5.93
2023-01-12T20:16:52.352Z,6.03
2023-01-12T20:19:20.559Z,5.88
2023-01-12T20:21:48.299Z,5.38
2023-01-12T20:24:16.334Z,5.60
2023-01-12T20:26:44.027Z,5.63
2023-01-12T20:29:13.189Z,5.45
2023-01-12T20:31:41.226Z,5.63
2023-01-12T20:34:09.019Z,5.35
2023-01-12T20:36:38.494Z,5.90
2023-01-12T20:39:06.481Z,5.68
2023-01-12T20:41:34.223Z,5.28
2023-01-12T20:44:02.050Z,5.80
2023-01-12T20:46:31.244Z,5.72
2023-01-12T20:48:59.410Z,6.40
2023-01-12T20:51:27.074Z,6.50
2023-01-12T20:53:54.707Z,5.43
2023-01-12T20:56:24.543Z,5.85
2023-01-12T20:58:52.315Z,6.50
2023-01-12T21:01:20.220Z,5.38
2023-01-12T21:03:49.317Z,5.60
2023-01-12T21:06:18.362Z,5.13
2023-01-12T21:08:47.672Z,4.82
2023-01-12T21:11:16.809Z,4.60
2023-01-12T21:13:44.897Z,4.65
2023-01-12T21:16:14.491Z,4.80
2023-01-12T21:18:42.914Z,4.88
2023-01-12T21:21:12.527Z,4.57
2023-01-12T21:23:40.184Z,4.85
2023-01-12T21:26:08.470Z,4.32
2023-01-12T21:28:38.407Z,4.30
2023-01-12T21:31:08.368Z,5.30
2023-01-12T21:33:36.526Z,4.35
2023-01-12T21:36:05.217Z,5.45
2023-01-12T21:38:34.406Z,4.25
2023-01-12T21:41:03.393Z,4.38
2023-01-12T21:43:31.279Z,4.78
2023-01-12T21:46:04.941Z,4.67
2023-01-12T21:48:32.817Z,4.60
2023-01-12T21:51:04.621Z,3.88
2023-01-12T21:53:32.343Z,3.95
2023-01-12T21:56:03.156Z,4.18
2023-01-12T21:58:33.175Z,3.75
2023-01-12T22:01:01.308Z,4.28
2023-01-12T22:03:29.835Z,4.32
2023-01-12T22:05:58.101Z,3.78
2023-01-12T22:08:25.846Z,4.82
2023-01-12T22:10:53.666Z,4.95
2023-01-12T22:13:22.833Z,4.00
2023-01-12T22:15:52.127Z,4.03
2023-01-12T22:18:20.911Z,4.10
2023-01-12T22:20:49.519Z,3.90
2023-01-12T22:23:17.190Z,5.28
2023-01-12T22:25:44.863Z,3.30
2023-01-12T22:28:12.561Z,3.85
2023-01-12T22:30:43.137Z,3.05
2023-01-12T22:33:11.722Z,2.90
2023-01-12T22:35:39.588Z,3.37
2023-01-12T22:38:07.314Z,3.60
2023-01-12T22:40:35.050Z,1.77
2023-01-12T22:43:20.403Z,2.50
2023-01-12T22:45:50.617Z,2.33
2023-01-12T22:48:18.350Z,1.90
2023-01-12T22:50:47.437Z,3.13
2023-01-12T22:53:15.227Z,2.73
2023-01-12T22:55:43.005Z,3.83
2023-01-12T22:58:10.747Z,3.20
2023-01-12T23:00:39.728Z,2.33
2023-01-12T23:03:10.805Z,3.00
2023-01-12T23:05:45.708Z,4.00
2023-01-12T23:08:14.420Z,6.53
2023-01-12T23:10:42.385Z,5.25
2023-01-12T23:13:18.892Z,5.37
2023-01-12T23:15:48.475Z,4.57
2023-01-12T23:18:18.886Z,5.70
2023-01-12T23:20:47.251Z,8.40
2023-01-12T23:23:17.548Z,5.07
2023-01-12T23:25:45.825Z,7.47
2023-01-12T23:28:14.132Z,6.95
2023-01-12T23:30:43.400Z,9.98
2023-01-12T23:33:11.423Z,8.03
2023-01-12T23:35:41.894Z,7.47
2023-01-12T23:38:15.248Z,10.95
2023-01-12T23:40:43.039Z,6.65
2023-01-12T23:43:10.668Z,7.47
2023-01-12T23:45:38.383Z,7.65
2023-01-12T23:48:07.799Z,9.30
2023-01-12T23:50:35.585Z,6.35
2023-01-12T23:53:04.751Z,6.88
2023-01-12T23:55:32.410Z,8.15
2023-01-12T23:58:00.071Z,9.25
